CDT,Max TemperatureF,Mean TemperatureF,Min TemperatureF,Max Dew PointF,MeanDew PointF,Min DewpointF,Max Humidity, Mean Humidity, Min Humidity, Max Sea Level PressureIn, Mean Sea Level PressureIn, Min Sea Level PressureIn, Max VisibilityMiles, Mean VisibilityMiles, Min VisibilityMiles, Max Wind SpeedMPH, Mean Wind SpeedMPH, Max Gust SpeedMPH,PrecipitationIn, CloudCover, Events, WindDirDegrees
2013-3-1,32,30,27,23,22,19,78,71,63,30.21,30.15,30.11,10,9,2,16,9,21,T,8,Snow,316
2013-3-2,35,28,20,22,17,14,77,62,47,30.29,30.25,30.18,10,8,2,17,9,23,0.01,6,Snow,332
2013-3-3,44,30,16,24,18,14,84,59,33,30.25,30.11,29.98,10,10,8,14,5,22,0.00,3,,152
2013-3-4,50,42,34,42,34,24,93,77,60,29.96,29.80,29.73,10,10,7,13,8,20,0.00,3,,128
2013-3-5,44,38,31,41,27,18,96,68,39,30.22,30.01,29.80,10,8,1,29,15,43,0.16,6,Rain-Snow,312
2013-3-6,46,37,28,21,19,17,75,58,40,30.39,30.32,30.22,10,10,10,25,9,35,0.00,3,,347
2013-3-7,53,40,27,30,25,20,76,56,35,30.38,30.31,30.26,10,10,10,12,6,15,0.00,1,,120
2013-3-8,53,42,30,32,29,27,85,60,35,30.37,30.29,30.17,10,10,9,13,7,20,0.00,1,,120
2013-3-9,71,58,45,49,34,30,72,48,23,30.14,29.95,29.78,10,10,10,23,12,33,T,5,Rain,153
2013-3-10,58,47,35,54,46,30,93,83,72,29.85,29.74,29.65,10,6,0,23,10,31,1.64,8,Fog-Rain-Thunderstorm,222
2013-3-11,39,34,28,30,26,23,92,76,59,30.05,29.89,29.82,10,9,5,18,10,28,T,7,Rain,276
2013-3-12,55,40,25,24,22,20,81,55,28,30.28,30.14,30.04,10,10,10,21,8,33,0.00,1,,293
2013-3-13,48,38,28,22,19,17,69,50,31,30.44,30.38,30.28,10,10,10,18,7,25,0.00,0,,319
2013-3-14,71,49,27,35,26,15,75,51,26,30.40,30.24,30.10,10,10,10,16,6,22,0.00,0,,210
2013-3-15,80,62,43,44,39,35,71,46,20,30.10,29.92,29.77,10,8,4,21,10,29,0.00,0,,236
2013-3-16,69,56,42,46,41,35,70,55,40,29.93,29.83,29.74,10,9,6,20,11,28,0.00,1,,347
2013-3-17,42,39,35,38,36,33,92,83,73,30.02,29.86,29.73,10,5,1,20,10,26,0.82,8,Rain-Thunderstorm,69
2013-3-18,51,43,35,41,37,28,100,75,49,30.05,29.79,29.68,10,7,0,18,8,25,0.01,6,Fog,285
2013-3-19,52,41,29,28,19,9,70,46,22,30.24,30.18,30.06,10,10,10,17,5,21,0.00,4,,357
2013-3-20,46,36,26,29,18,0,85,51,16,30.31,30.22,30.14,10,10,10,29,9,43,0.00,2,,299
2013-3-21,37,28,19,27,22,7,92,62,32,30.12,30.00,29.94,10,3,0,10,4,13,0.00,7,Fog-Snow,118
2013-3-22,36,33,29,31,29,26,100,91,82,30.00,29.95,29.91,10,4,0,12,7,21,0.55,8,Fog-Rain-Snow,82
2013-3-23,44,39,34,39,33,27,93,79,64,29.98,29.88,29.73,10,9,5,14,8,17,0.04,8,Rain,60
2013-3-24,41,35,29,39,33,21,93,80,66,30.00,29.69,29.54,10,4,1,28,13,39,0.40,8,Rain-Snow-Thunderstorm,330
2013-3-25,33,29,25,25,21,18,78,71,63,30.27,30.11,29.96,10,9,2,21,14,28,0.01,8,Snow,295
2013-3-26,45,36,26,23,21,19,81,60,39,30.39,30.32,30.24,10,10,8,15,7,21,0.00,3,Snow,319
2013-3-27,51,36,21,31,23,17,88,60,32,30.40,30.34,30.27,10,10,9,10,4,14,0.00,2,,137
2013-3-28,62,52,41,37,33,30,65,51,36,30.30,30.25,30.19,10,10,5,13,6,20,T,5,Rain,125
2013-3-29,64,55,46,49,45,38,93,73,52,30.22,30.19,30.14,10,9,6,14,4,20,0.07,5,Rain,123
2013-3-30,56,51,45,50,46,43,100,86,71,30.19,30.03,29.92,10,6,0,21,6,26,0.01,7,Fog-Rain,138
2013-3-31,69,57,44,50,43,33,100,63,26,29.97,29.92,29.86,10,6,0,16,6,23,0.03,4,Fog-Rain,333